Time;durP1;ratioP1;P1;durP2;ratioP2;P2;SDS_P1;SDS_P2;PMS_P1;PMS_P2;Temp;Humidity;BMP_temperature;BMP_pressure;BME280_temperature;BME280_humidity;BME280_pressure;Samples;Min_cycle;Max_cycle;Signal;HPM_P1;HPM_P2
2022/05/06 00:00:03;;;;;;;8.98;4.38;;;12.70;99.90;;;;;;5059058;28;20514;-78
2022/05/06 00:02:28;;;;;;;7.85;4.30;;;12.60;99.90;;;;;;5055492;28;20045;-78
2022/05/06 00:04:54;;;;;;;10.65;5.00;;;12.70;99.90;;;;;;5057637;28;20171;-78
2022/05/06 00:07:20;;;;;;;9.57;4.15;;;12.60;99.90;;;;;;5060831;28;20043;-78
2022/05/06 00:09:46;;;;;;;8.15;4.38;;;12.60;99.90;;;;;;5061390;28;20045;-78
2022/05/06 00:12:13;;;;;;;9.18;4.50;;;12.60;99.90;;;;;;5064612;28;20041;-79
2022/05/06 00:14:42;;;;;;;7.30;4.35;;;12.60;99.90;;;;;;5065051;28;20051;-80
2022/05/06 00:17:07;;;;;;;7.75;4.50;;;12.70;99.90;;;;;;5064380;28;20037;-79
2022/05/06 00:19:33;;;;;;;9.90;4.95;;;12.60;99.90;;;;;;5065633;28;20045;-78
2022/05/06 00:21:59;;;;;;;6.80;4.53;;;12.60;99.90;;;;;;5064710;28;20053;-78
2022/05/06 00:24:25;;;;;;;7.85;4.35;;;12.60;99.90;;;;;;5064947;28;20048;-78
2022/05/06 00:26:51;;;;;;;6.57;4.40;;;12.60;99.90;;;;;;5066912;28;20143;-78
2022/05/06 00:29:16;;;;;;;7.13;4.40;;;12.70;99.90;;;;;;5067178;28;20049;-78
2022/05/06 00:31:42;;;;;;;8.02;4.50;;;12.60;99.90;;;;;;5063622;28;20055;-78
2022/05/06 00:34:10;;;;;;;7.90;4.38;;;12.50;99.90;;;;;;5064494;28;20411;-78
2022/05/06 00:36:36;;;;;;;9.27;3.70;;;12.50;99.90;;;;;;5067501;28;20449;-78
2022/05/06 00:39:02;;;;;;;6.32;4.75;;;12.50;99.90;;;;;;5065569;28;20056;-78
2022/05/06 00:41:28;;;;;;;7.80;4.78;;;12.50;99.90;;;;;;5066667;28;20089;-78
2022/05/06 00:43:54;;;;;;;7.20;4.10;;;12.40;99.90;;;;;;5064920;28;20155;-79
2022/05/06 00:46:22;;;;;;;11.10;4.72;;;12.40;99.90;;;;;;5067809;28;20067;-78
2022/05/06 00:48:56;;;;;;;6.97;3.67;;;12.40;99.90;;;;;;5066897;28;20048;-78
2022/05/06 00:51:23;;;;;;;7.60;4.68;;;12.40;99.90;;;;;;5063598;28;21197;-78
2022/05/06 00:53:53;;;;;;;8.32;4.22;;;12.30;99.90;;;;;;5066417;28;20534;-79
2022/05/06 00:56:20;;;;;;;9.55;4.40;;;11.80;99.90;;;;;;5081552;27;20033;-78
2022/05/06 00:58:46;;;;;;;10.02;4.30;;;12.30;99.90;;;;;;5060685;28;20053;-78
2022/05/06 01:01:15;;;;;;;9.32;4.60;;;12.30;99.90;;;;;;5064346;28;20117;-78
2022/05/06 01:03:41;;;;;;;8.88;5.00;;;12.40;99.90;;;;;;5063147;28;20041;-78
2022/05/06 01:06:18;;;;;;;6.93;3.90;;;12.20;99.90;;;;;;5064156;28;20069;-78
2022/05/06 01:08:44;;;;;;;7.22;4.20;;;12.20;99.90;;;;;;5063614;28;20041;-78
2022/05/06 01:11:17;;;;;;;8.40;4.10;;;12.20;99.90;;;;;;5061904;28;20127;-78
2022/05/06 01:13:46;;;;;;;7.75;4.22;;;12.20;99.90;;;;;;5065173;28;20572;-78
2022/05/06 01:16:12;;;;;;;7.60;4.50;;;12.30;99.90;;;;;;5063902;28;20048;-79
2022/05/06 01:18:43;;;;;;;13.43;4.53;;;12.40;99.90;;;;;;5065161;28;20057;-78
2022/05/06 01:21:14;;;;;;;7.63;4.57;;;11.90;99.90;;;;;;5071414;28;20523;-78
2022/05/06 01:23:40;;;;;;;9.27;4.55;;;11.90;99.90;;;;;;5062253;28;20068;-78
2022/05/06 01:26:06;;;;;;;7.47;4.75;;;12.20;99.90;;;;;;5062044;28;20074;-78
2022/05/06 01:28:39;;;;;;;7.40;5.13;;;12.20;99.90;;;;;;5064152;28;21164;-77
2022/05/06 01:31:09;;;;;;;8.55;4.32;;;12.30;99.90;;;;;;5062733;28;20048;-77
2022/05/06 01:33:36;;;;;;;8.02;5.03;;;11.70;99.90;;;;;;5064855;28;20078;-79
2022/05/06 01:36:14;;;;;;;;;;;;;;;;;;;;;
2022/05/06 01:38:46;;;;;;;12.45;5.40;;;13.30;99.90;;;;;;5064333;28;40339;-78
2022/05/06 01:41:27;;;;;;;7.43;4.30;;;12.10;99.90;;;;;;5080611;28;20045;-78
2022/05/06 01:43:59;;;;;;;10.90;5.57;;;12.00;99.90;;;;;;5062855;28;20075;-77
2022/05/06 01:46:27;;;;;;;10.57;5.35;;;12.00;99.90;;;;;;5063076;28;20049;-78
2022/05/06 01:48:55;;;;;;;10.18;4.47;;;12.00;99.90;;;;;;5061833;28;20118;-77
2022/05/06 01:51:26;;;;;;;8.40;4.85;;;12.00;99.90;;;;;;5062929;28;20045;-78
2022/05/06 01:53:52;;;;;;;7.47;5.18;;;12.00;99.90;;;;;;5080218;27;20072;-78
2022/05/06 01:56:23;;;;;;;9.20;4.63;;;12.00;99.90;;;;;;5051524;28;20922;-78
2022/05/06 01:58:49;;;;;;;6.97;3.77;;;12.00;99.90;;;;;;5078557;28;20044;-77
2022/05/06 02:01:15;;;;;;;15.40;6.38;;;12.00;99.90;;;;;;5060161;28;20275;-78
2022/05/06 02:06:26;;;;;;;10.73;6.20;;;12.00;99.90;;;;;;5063839;28;20052;-78
2022/05/06 02:08:57;;;;;;;7.28;4.05;;;11.70;99.90;;;;;;5063332;28;20526;-78
2022/05/06 02:11:23;;;;;;;11.10;5.18;;;12.00;99.90;;;;;;5062036;28;20846;-78
2022/05/06 02:13:49;;;;;;;8.32;4.70;;;12.20;99.90;;;;;;5064125;28;20046;-78
2022/05/06 02:16:20;;;;;;;9.13;4.57;;;12.00;99.90;;;;;;5063200;28;21252;-78
2022/05/06 02:18:51;;;;;;;9.40;4.93;;;11.90;99.90;;;;;;5060961;28;20492;-78
2022/05/06 02:21:17;;;;;;;10.70;4.75;;;11.50;99.90;;;;;;5063472;28;20044;-78
2022/05/06 02:23:48;;;;;;;8.82;5.05;;;12.00;99.90;;;;;;5060866;28;20068;-78
2022/05/06 02:26:16;;;;;;;10.33;5.70;;;11.90;99.90;;;;;;5061102;28;20049;-77
2022/05/06 02:28:42;;;;;;;10.32;5.20;;;11.90;99.90;;;;;;5063400;28;20462;-78
2022/05/06 02:33:55;;;;;;;8.93;5.03;;;11.80;99.90;;;;;;5064294;28;20851;-78
2022/05/06 02:36:21;;;;;;;9.13;4.65;;;11.70;99.90;;;;;;5061736;28;20029;-78
2022/05/06 02:38:50;;;;;;;10.02;5.00;;;11.70;99.90;;;;;;5063128;28;20037;-78
2022/05/06 02:41:16;;;;;;;12.10;5.10;;;11.70;99.90;;;;;;5065310;28;20100;-78
2022/05/06 02:43:44;;;;;;;10.27;5.25;;;11.70;99.90;;;;;;5062762;28;20132;-78
2022/05/06 02:46:15;;;;;;;9.00;5.20;;;11.70;99.90;;;;;;5063797;28;21274;-77
2022/05/06 02:48:44;;;;;;;9.98;4.35;;;11.70;99.90;;;;;;5061554;28;20526;-79
2022/05/06 02:51:10;;;;;;;12.52;4.68;;;11.60;99.90;;;;;;5060978;28;20049;-78
2022/05/06 02:53:36;;;;;;;9.75;4.70;;;11.60;99.90;;;;;;5059643;28;20502;-78
2022/05/06 02:56:04;;;;;;;8.00;5.00;;;11.60;99.90;;;;;;5059580;28;20045;-78
2022/05/06 02:58:30;;;;;;;10.73;5.70;;;11.60;99.90;;;;;;5068292;28;20044;-78
2022/05/06 03:00:56;;;;;;;11.23;5.95;;;11.60;99.90;;;;;;5060430;28;20052;-77
2022/05/06 03:03:25;;;;;;;11.18;5.88;;;11.60;99.90;;;;;;5060562;28;20124;-78
2022/05/06 03:05:51;;;;;;;9.88;5.30;;;11.50;99.90;;;;;;5059520;28;20052;-77
2022/05/06 03:08:19;;;;;;;9.70;5.28;;;11.60;99.90;;;;;;5062093;28;20535;-78
2022/05/06 03:10:48;;;;;;;10.85;5.28;;;11.50;99.90;;;;;;5060914;28;20575;-78
2022/05/06 03:13:16;;;;;;;8.18;4.88;;;11.00;99.90;;;;;;5058884;28;20075;-79
2022/05/06 03:15:45;;;;;;;10.05;4.88;;;11.50;99.90;;;;;;5062221;28;20580;-77
2022/05/06 03:18:11;;;;;;;11.38;5.22;;;11.50;99.90;;;;;;5057599;28;20040;-78
2022/05/06 03:20:39;;;;;;;7.55;4.45;;;11.80;99.90;;;;;;5061983;28;20052;-78
2022/05/06 03:23:12;;;;;;;10.05;4.72;;;11.50;99.90;;;;;;5060451;28;20075;-78
2022/05/06 03:25:41;;;;;;;7.60;5.00;;;11.10;99.90;;;;;;5062232;28;20048;-78
2022/05/06 03:28:07;;;;;;;8.93;5.13;;;11.40;99.90;;;;;;5062358;28;20032;-78
2022/05/06 03:30:39;;;;;;;8.90;4.45;;;11.40;99.90;;;;;;5059580;28;20091;-78
2022/05/06 03:33:08;;;;;;;;;;;11.40;99.90;;;;;;5061361;28;20413;-78
2022/05/06 03:35:35;;;;;;;8.70;4.07;;;11.30;99.90;;;;;;5062670;28;20454;-78
2022/05/06 03:38:05;;;;;;;11.68;5.97;;;11.40;99.90;;;;;;5062839;28;20591;-78
2022/05/06 03:40:33;;;;;;;12.43;5.68;;;11.30;99.90;;;;;;5061796;28;20534;-78
2022/05/06 03:43:02;;;;;;;7.43;4.88;;;11.20;99.90;;;;;;5063037;28;20033;-78
2022/05/06 03:45:28;;;;;;;7.88;4.78;;;11.30;99.90;;;;;;5061540;28;20067;-78
2022/05/06 03:47:56;;;;;;;12.00;5.30;;;11.20;99.90;;;;;;5076342;27;20045;-77
2022/05/06 03:53:09;;;;;;;9.55;5.55;;;11.30;99.90;;;;;;5063868;28;20115;-78
2022/05/06 03:55:35;;;;;;;7.50;4.43;;;11.20;99.90;;;;;;5061733;28;20067;-78
2022/05/06 03:58:04;;;;;;;9.68;5.28;;;11.20;99.90;;;;;;5062471;28;20991;-78
2022/05/06 04:00:33;;;;;;;9.55;5.40;;;11.20;99.90;;;;;;5062032;28;20041;-78
2022/05/06 04:03:01;;;;;;;10.77;4.97;;;11.10;99.90;;;;;;5075873;27;20080;-77
2022/05/06 04:05:29;;;;;;;13.73;6.13;;;10.40;99.90;;;;;;5061369;28;20128;-78
2022/05/06 04:07:59;;;;;;;8.43;4.88;;;11.30;99.90;;;;;;5061266;28;21195;-78
2022/05/06 04:10:30;;;;;;;10.80;5.20;;;11.20;99.90;;;;;;5075522;27;20048;-78
2022/05/06 04:12:56;;;;;;;10.65;5.63;;;11.20;99.90;;;;;;5060403;28;20601;-77
2022/05/06 04:15:24;;;;;;;10.40;5.60;;;10.60;99.90;;;;;;5062688;28;20105;-78
2022/05/06 04:17:50;;;;;;;13.25;5.47;;;11.30;99.90;;;;;;5062046;28;20119;-77
2022/05/06 04:25:49;;;;;;;9.38;5.50;;;11.00;99.90;;;;;;5062305;28;20124;-78
2022/05/06 04:28:21;;;;;;;11.07;4.63;;;11.10;99.90;;;;;;5062581;28;20043;-78
2022/05/06 04:30:47;;;;;;;7.60;4.88;;;10.60;99.90;;;;;;5075801;28;20179;-77
2022/05/06 04:33:15;;;;;;;8.55;4.72;;;11.10;99.90;;;;;;5062214;28;20045;-77
2022/05/06 04:35:42;;;;;;;8.18;5.13;;;11.20;99.90;;;;;;5061959;28;20150;-78
2022/05/06 04:38:11;;;;;;;9.85;5.55;;;10.90;99.90;;;;;;5060939;28;20052;-78
2022/05/06 04:40:37;;;;;;;12.32;4.85;;;11.20;99.90;;;;;;5076440;28;20091;-78
2022/05/06 04:43:06;;;;;;;8.95;5.10;;;11.10;99.90;;;;;;5059804;28;20103;-78
2022/05/06 04:45:36;;;;;;;9.23;5.05;;;11.20;99.90;;;;;;5063014;28;20045;-78
2022/05/06 04:48:02;;;;;;;8.90;4.38;;;11.20;99.90;;;;;;5063412;28;20620;-78
2022/05/06 04:50:30;;;;;;;9.73;4.35;;;11.20;99.90;;;;;;5061737;28;20076;-78
2022/05/06 04:52:56;;;;;;;9.27;4.40;;;11.20;99.90;;;;;;5060667;28;20068;-78
2022/05/06 04:55:22;;;;;;;10.20;5.43;;;11.20;99.90;;;;;;5057347;28;20037;-78
2022/05/06 04:57:52;;;;;;;6.88;4.55;;;10.80;99.90;;;;;;5059259;28;20041;-78
2022/05/06 05:00:19;;;;;;;11.80;6.03;;;11.20;99.90;;;;;;5062636;28;20255;-78
2022/05/06 05:02:48;;;;;;;10.60;5.32;;;11.00;99.90;;;;;;5064450;28;20617;-78
2022/05/06 05:05:14;;;;;;;10.98;5.38;;;11.20;99.90;;;;;;5074049;28;21649;-77
2022/05/06 05:07:45;;;;;;;12.20;6.28;;;11.50;99.90;;;;;;5063620;28;20171;-78
2022/05/06 05:10:11;;;;;;;9.18;5.18;;;11.20;99.90;;;;;;5061050;28;20531;-78
2022/05/06 05:12:39;;;;;;;13.98;5.97;;;11.20;99.90;;;;;;5066740;28;20083;-77
2022/05/06 05:15:10;;;;;;;8.75;4.78;;;11.30;99.90;;;;;;5063587;28;20084;-78
2022/05/06 05:17:38;;;;;;;8.68;4.40;;;11.90;99.90;;;;;;5064272;28;20172;-78
2022/05/06 05:20:16;;;;;;;11.63;6.10;;;11.10;99.90;;;;;;5064982;28;20048;-77
2022/05/06 05:22:44;;;;;;;9.13;5.10;;;11.20;99.90;;;;;;5065163;28;20129;-78
2022/05/06 05:25:10;;;;;;;8.82;4.75;;;11.20;99.90;;;;;;5070931;28;20040;-77
2022/05/06 05:27:39;;;;;;;10.85;5.90;;;11.20;99.90;;;;;;5067461;28;20086;-78
2022/05/06 05:30:08;;;;;;;11.35;6.95;;;11.20;99.90;;;;;;5064295;28;20545;-78
2022/05/06 05:32:37;;;;;;;7.13;4.55;;;11.20;99.90;;;;;;5059533;28;20051;-77
2022/05/06 05:35:08;;;;;;;11.60;5.47;;;11.20;99.90;;;;;;5062130;28;20123;-77
2022/05/06 05:37:37;;;;;;;6.70;4.03;;;11.20;99.90;;;;;;5062541;28;20040;-78
2022/05/06 05:40:06;;;;;;;9.45;5.25;;;11.70;99.90;;;;;;5063975;28;20052;-78
2022/05/06 05:42:32;;;;;;;9.05;4.88;;;11.20;99.90;;;;;;5061630;28;20048;-77
2022/05/06 05:50:38;;;;;;;9.00;4.80;;;11.10;99.90;;;;;;5063242;28;20569;-77
2022/05/06 05:53:05;;;;;;;10.40;5.65;;;11.50;99.90;;;;;;5059543;28;20051;-76
2022/05/06 05:55:31;;;;;;;9.75;5.22;;;11.40;99.90;;;;;;5064121;28;20053;-76
2022/05/06 05:57:59;;;;;;;8.63;4.70;;;11.40;99.90;;;;;;5062783;28;20120;-76
2022/05/06 06:00:27;;;;;;;10.00;5.85;;;10.40;99.90;;;;;;5064270;28;20045;-76
2022/05/06 06:02:56;;;;;;;12.52;4.97;;;11.20;99.90;;;;;;5063088;28;20033;-84
2022/05/06 06:05:23;;;;;;;10.63;5.05;;;11.40;99.90;;;;;;5063224;28;20033;-78
2022/05/06 06:07:59;;;;;;;11.27;7.00;;;11.40;99.90;;;;;;5062151;28;20056;-77
2022/05/06 06:10:33;;;;;;;11.07;5.70;;;11.40;99.90;;;;;;5060388;28;20068;-78
2022/05/06 06:13:05;;;;;;;12.38;6.80;;;11.90;99.90;;;;;;5064593;28;20558;-77
2022/05/06 06:15:34;;;;;;;10.40;6.28;;;10.50;99.90;;;;;;5062456;28;20155;-77
2022/05/06 06:18:06;;;;;;;12.20;6.53;;;11.60;99.90;;;;;;5063859;28;20060;-78
2022/05/06 06:20:32;;;;;;;11.05;6.40;;;11.10;99.90;;;;;;5063588;28;20045;-77
2022/05/06 06:23:01;;;;;;;11.32;6.40;;;11.80;99.90;;;;;;5081368;28;20048;-77
2022/05/06 06:25:27;;;;;;;11.65;6.32;;;12.30;99.90;;;;;;5062344;28;20037;-81
2022/05/06 06:27:57;;;;;;;12.95;7.22;;;11.70;99.90;;;;;;5070746;28;20047;-77
2022/05/06 06:30:23;;;;;;;12.43;7.20;;;11.70;99.90;;;;;;5068758;28;20045;-78
2022/05/06 06:32:53;;;;;;;15.73;7.60;;;11.30;99.90;;;;;;5067724;28;20045;-78
2022/05/06 06:35:22;;;;;;;14.40;6.90;;;11.80;99.90;;;;;;5062538;28;20041;-79
2022/05/06 06:37:54;;;;;;;11.57;7.07;;;11.80;99.90;;;;;;5057309;28;20084;-78
2022/05/06 06:40:20;;;;;;;15.90;8.30;;;11.80;99.90;;;;;;5077477;27;20336;-77
2022/05/06 06:42:51;;;;;;;14.27;7.68;;;11.90;99.90;;;;;;5062963;28;20093;-78
2022/05/06 06:45:21;;;;;;;11.20;6.15;;;11.90;99.90;;;;;;5064115;28;20102;-80
2022/05/06 06:47:51;;;;;;;14.43;8.13;;;11.90;99.90;;;;;;5063364;28;20036;-79
2022/05/06 06:50:19;;;;;;;16.58;8.38;;;11.50;99.90;;;;;;5062808;28;20829;-77
2022/05/06 06:52:46;;;;;;;13.35;6.50;;;11.90;99.90;;;;;;5063800;28;20040;-78
2022/05/06 06:55:15;;;;;;;13.13;7.38;;;12.00;99.90;;;;;;5059935;28;20045;-78
2022/05/06 06:57:43;;;;;;;12.20;6.65;;;12.10;99.90;;;;;;5063092;28;20136;-78
2022/05/06 07:00:12;;;;;;;10.73;7.00;;;12.10;99.90;;;;;;5062568;28;20594;-78
2022/05/06 07:02:40;;;;;;;11.68;7.13;;;12.10;99.90;;;;;;5062669;28;20043;-78
2022/05/06 07:05:08;;;;;;;10.45;6.35;;;12.10;99.90;;;;;;5064326;28;20102;-78
2022/05/06 07:13:04;;;;;;;13.45;7.03;;;12.20;99.90;;;;;;5064272;28;21387;-78
2022/05/06 07:15:39;;;;;;;13.07;6.20;;;12.30;99.90;;;;;;5062697;28;20036;-78
2022/05/06 07:18:11;;;;;;;12.15;7.03;;;12.30;99.90;;;;;;5063719;28;20072;-78
2022/05/06 07:20:40;;;;;;;14.68;6.82;;;12.30;99.90;;;;;;5063619;28;20143;-78
2022/05/06 07:23:08;;;;;;;13.63;6.40;;;12.40;99.90;;;;;;5062557;28;20081;-77
2022/05/06 07:25:34;;;;;;;13.35;6.57;;;12.40;99.90;;;;;;5062721;28;20041;-78
2022/05/06 07:28:03;;;;;;;14.30;6.22;;;12.40;99.90;;;;;;5061514;28;20041;-77
2022/05/06 07:30:32;;;;;;;11.93;6.95;;;12.40;99.90;;;;;;5062190;28;21784;-78
2022/05/06 07:32:58;;;;;;;12.95;6.63;;;12.50;99.90;;;;;;5064366;28;20534;-77
2022/05/06 07:35:25;;;;;;;13.18;6.95;;;12.50;99.90;;;;;;5063782;28;20562;-77
2022/05/06 07:37:59;;;;;;;16.17;7.03;;;12.10;99.90;;;;;;5062778;28;20041;-78
2022/05/06 07:40:25;;;;;;;12.30;6.47;;;12.80;99.90;;;;;;5063871;28;20157;-78
2022/05/06 07:42:55;;;;;;;14.45;6.65;;;12.70;99.90;;;;;;5079074;28;20056;-77
2022/05/06 07:45:21;;;;;;;15.70;6.97;;;12.90;99.90;;;;;;5077452;28;20033;-77
2022/05/06 07:47:52;;;;;;;17.52;6.60;;;12.70;99.90;;;;;;5063796;28;20150;-77
2022/05/06 07:50:21;;;;;;;12.43;6.13;;;12.70;99.90;;;;;;5061944;28;20083;-77
2022/05/06 07:52:51;;;;;;;11.10;6.30;;;12.80;99.90;;;;;;5061961;28;20068;-80
2022/05/06 07:55:23;;;;;;;15.98;7.47;;;12.80;99.90;;;;;;5061460;28;20041;-76
2022/05/06 07:57:49;;;;;;;16.88;9.55;;;12.90;99.90;;;;;;5080606;28;20599;-77
2022/05/06 08:00:23;;;;;;;13.75;7.22;;;12.90;99.90;;;;;;5065001;28;20724;-78
2022/05/06 08:05:45;;;;;;;18.17;7.95;;;13.00;99.90;;;;;;5061197;28;20092;-77
2022/05/06 08:08:11;;;;;;;11.38;6.70;;;13.00;99.90;;;;;;5063416;28;20052;-77
2022/05/06 08:10:42;;;;;;;15.65;7.63;;;13.10;99.90;;;;;;5062821;28;20051;-77
2022/05/06 08:13:14;;;;;;;13.32;6.97;;;12.80;99.90;;;;;;5062713;28;20045;-78
2022/05/06 08:15:40;;;;;;;14.85;7.35;;;13.20;99.90;;;;;;5061900;28;20045;-77
2022/05/06 08:18:06;;;;;;;16.35;7.93;;;13.20;99.90;;;;;;5061837;28;20052;-77
2022/05/06 08:20:32;;;;;;;13.68;6.72;;;13.70;99.90;;;;;;5061315;28;20510;-77
2022/05/06 08:23:01;;;;;;;13.40;7.25;;;13.30;99.90;;;;;;5060794;28;20045;-77
2022/05/06 08:25:27;;;;;;;14.30;7.45;;;13.30;99.90;;;;;;5061083;28;20594;-77
2022/05/06 08:27:53;;;;;;;13.75;7.75;;;13.30;99.90;;;;;;5061497;28;20045;-77
2022/05/06 08:30:19;;;;;;;14.02;7.70;;;13.40;99.90;;;;;;5061083;28;20044;-77
2022/05/06 08:32:48;;;;;;;15.27;6.75;;;13.40;99.90;;;;;;5061531;28;20561;-77
2022/05/06 08:35:13;;;;;;;19.65;7.20;;;13.40;99.90;;;;;;5077708;28;20565;-78
2022/05/06 08:37:44;;;;;;;11.48;7.15;;;13.50;99.90;;;;;;5064255;28;20068;-78
2022/05/06 08:40:31;;;;;;;15.45;5.75;;;13.50;99.90;;;;;;5064012;28;20048;-77
2022/05/06 08:42:58;;;;;;;12.98;6.90;;;13.50;99.90;;;;;;5067352;28;20048;-78
2022/05/06 08:50:57;;;;;;;10.90;5.95;;;14.20;99.90;;;;;;5064313;28;20048;-76
2022/05/06 08:53:27;;;;;;;14.23;7.28;;;13.60;99.90;;;;;;5065664;28;20223;-77
2022/05/06 08:55:55;;;;;;;9.65;6.25;;;13.60;99.90;;;;;;5061752;28;20048;-77
2022/05/06 08:58:24;;;;;;;12.15;5.75;;;13.70;99.90;;;;;;5062281;28;20759;-77
2022/05/06 09:00:51;;;;;;;10.98;6.40;;;13.70;99.90;;;;;;5064489;28;20127;-77
2022/05/06 09:03:20;;;;;;;15.25;5.72;;;13.80;99.90;;;;;;5064918;28;20041;-77
2022/05/06 09:05:58;;;;;;;10.45;5.95;;;13.80;99.90;;;;;;5063244;28;20045;-77
2022/05/06 09:08:38;;;;;;;9.70;5.78;;;13.80;99.90;;;;;;5059116;28;20037;-77
2022/05/06 09:11:07;;;;;;;14.18;6.82;;;13.80;99.90;;;;;;5076928;28;20064;-78
2022/05/06 09:13:36;;;;;;;9.48;5.50;;;13.90;99.90;;;;;;5064110;28;20041;-79
2022/05/06 09:19:15;;;;;;;12.60;6.07;;;13.90;99.90;;;;;;5064204;28;20073;-78
2022/05/06 09:22:03;;;;;;;10.05;5.80;;;14.00;99.90;;;;;;5062055;28;20167;-77
2022/05/06 09:24:35;;;;;;;9.18;5.38;;;14.00;99.90;;;;;;5062855;28;20047;-77
2022/05/06 09:27:06;;;;;;;9.10;5.20;;;14.00;99.90;;;;;;5063561;28;20037;-78
2022/05/06 09:29:54;;;;;;;10.32;4.82;;;14.10;99.90;;;;;;5066619;28;20053;-78
2022/05/06 09:32:28;;;;;;;10.98;5.45;;;14.20;99.90;;;;;;5065033;28;20136;-78
2022/05/06 09:35:12;;;;;;;8.18;5.05;;;14.20;99.90;;;;;;5073485;28;20040;-77
2022/05/06 09:37:46;;;;;;;9.85;4.88;;;14.20;99.90;;;;;;5065425;28;20043;-77
2022/05/06 09:40:19;;;;;;;6.95;4.68;;;14.30;99.90;;;;;;5071651;28;20040;-78
2022/05/06 09:42:58;;;;;;;9.52;4.88;;;14.40;99.90;;;;;;5063829;28;20683;-78
2022/05/06 09:45:33;;;;;;;9.15;4.90;;;14.30;99.90;;;;;;5063389;28;20037;-78
2022/05/06 09:48:03;;;;;;;11.00;4.40;;;14.30;99.90;;;;;;5065348;28;20040;-77
2022/05/06 09:50:42;;;;;;;12.13;4.95;;;14.40;99.90;;;;;;5067132;28;20855;-77
2022/05/06 09:53:11;;;;;;;6.43;4.07;;;14.50;99.90;;;;;;5080074;27;20973;-78
2022/05/06 09:55:41;;;;;;;9.10;4.82;;;14.60;99.90;;;;;;5063627;28;20042;-77
2022/05/06 09:58:10;;;;;;;7.85;4.32;;;14.60;99.90;;;;;;5063763;28;20033;-78
2022/05/06 10:00:38;;;;;;;9.40;4.88;;;14.60;99.90;;;;;;5068179;28;20037;-76
2022/05/06 10:03:05;;;;;;;8.77;3.92;;;14.60;99.90;;;;;;5066724;28;20076;-77
2022/05/06 10:05:34;;;;;;;8.40;4.07;;;14.70;99.90;;;;;;5082782;28;20079;-77
2022/05/06 10:08:11;;;;;;;7.97;4.75;;;14.70;99.90;;;;;;5066957;28;20044;-77
2022/05/06 10:10:41;;;;;;;6.53;4.38;;;14.70;99.90;;;;;;5083372;28;20507;-77
2022/05/06 10:13:14;;;;;;;8.10;3.97;;;14.70;99.90;;;;;;5064098;28;20490;-77
2022/05/06 10:15:40;;;;;;;7.07;3.88;;;14.80;99.90;;;;;;5064182;28;20051;-77
2022/05/06 10:18:07;;;;;;;6.82;4.13;;;14.80;99.90;;;;;;5063334;28;20427;-77
2022/05/06 10:20:41;;;;;;;9.60;4.55;;;14.90;99.90;;;;;;5064606;28;20094;-78
2022/05/06 10:23:08;;;;;;;7.72;4.07;;;14.90;99.90;;;;;;5064417;28;20081;-77
2022/05/06 10:25:46;;;;;;;6.63;3.70;;;14.90;99.90;;;;;;5062551;28;20041;-78
2022/05/06 10:34:17;;;;;;;6.57;3.65;;;15.00;99.90;;;;;;5063529;28;20111;-87
2022/05/06 10:36:43;;;;;;;7.78;4.47;;;15.10;99.90;;;;;;5063793;28;20047;-77
2022/05/06 10:39:39;;;;;;;8.35;4.45;;;15.00;99.90;;;;;;5066378;28;20110;-77
2022/05/06 10:42:17;;;;;;;5.65;3.85;;;15.10;99.90;;;;;;5065419;28;20171;-77
2022/05/06 10:44:50;;;;;;;5.63;3.35;;;15.10;99.90;;;;;;5064927;28;20702;-77
2022/05/06 10:47:18;;;;;;;6.32;3.67;;;15.20;99.90;;;;;;5065317;28;20158;-77
2022/05/06 10:49:48;;;;;;;6.75;4.03;;;15.20;99.90;;;;;;5067046;28;20053;-76
2022/05/06 10:52:18;;;;;;;6.63;3.97;;;15.20;99.90;;;;;;5065159;28;20047;-76
2022/05/06 10:54:54;;;;;;;6.97;3.67;;;15.30;99.90;;;;;;5062136;28;20593;-79
2022/05/06 10:57:30;;;;;;;8.50;4.38;;;15.30;99.90;;;;;;5063637;28;20045;-81
2022/05/06 10:59:56;;;;;;;7.75;3.78;;;15.40;99.90;;;;;;5061952;28;20738;-77
2022/05/06 11:02:29;;;;;;;5.78;3.83;;;15.40;99.90;;;;;;5060988;28;20071;-77
2022/05/06 11:05:00;;;;;;;7.55;3.53;;;15.40;99.90;;;;;;5059885;28;20053;-78
2022/05/06 11:07:27;;;;;;;6.72;3.72;;;15.20;99.90;;;;;;5064927;28;21478;-77
2022/05/06 11:09:53;;;;;;;6.40;3.65;;;15.50;99.90;;;;;;5064295;28;20163;-78
2022/05/06 11:12:36;;;;;;;8.63;3.47;;;15.50;99.90;;;;;;5061960;28;20826;-78
2022/05/06 11:15:09;;;;;;;6.47;3.38;;;15.60;99.90;;;;;;5063029;28;20126;-78
2022/05/06 11:17:39;;;;;;;6.88;3.75;;;15.60;99.90;;;;;;5061873;28;20095;-77
2022/05/06 11:20:23;;;;;;;6.65;3.60;;;16.00;99.90;;;;;;5062251;28;20045;-78
2022/05/06 11:23:11;;;;;;;5.38;3.33;;;15.70;99.90;;;;;;5066331;28;20110;-77
2022/05/06 11:26:00;;;;;;;6.68;2.95;;;15.70;99.90;;;;;;5064847;28;20041;-77
2022/05/06 11:28:32;;;;;;;5.20;3.15;;;15.70;99.90;;;;;;5061946;28;20036;-78
2022/05/06 11:30:57;;;;;;;;;;;15.80;99.90;;;;;;5061526;28;20878;-79
2022/05/06 11:33:32;;;;;;;4.25;2.50;;;15.50;99.90;;;;;;5061350;28;19920;-79
2022/05/06 11:36:03;;;;;;;5.13;2.85;;;15.90;99.90;;;;;;5062394;28;20160;-78
2022/05/06 11:38:33;;;;;;;6.80;2.57;;;15.90;99.90;;;;;;5063460;28;20052;-78
2022/05/06 11:41:13;;;;;;;6.78;3.85;;;15.90;99.90;;;;;;5061842;28;20056;-78
2022/05/06 11:43:43;;;;;;;4.38;2.10;;;15.90;99.90;;;;;;5060753;28;20041;-78
2022/05/06 11:49:07;;;;;;;6.95;3.78;;;16.00;99.90;;;;;;5062949;28;20053;-78
2022/05/06 11:51:49;;;;;;;5.22;3.55;;;16.00;99.90;;;;;;5061369;28;20070;-78
2022/05/06 11:54:32;;;;;;;5.60;2.72;;;16.00;99.90;;;;;;5061749;28;20072;-78
2022/05/06 11:57:01;;;;;;;;;;;15.60;99.90;;;;;;5061524;28;20049;-79
2022/05/06 11:59:30;;;;;;;5.25;2.80;;;16.10;99.90;;;;;;5059523;28;19943;-77
2022/05/06 12:02:08;;;;;;;3.33;2.15;;;16.10;99.90;;;;;;5061283;28;20045;-78
2022/05/06 12:04:34;;;;;;;11.77;3.10;;;16.20;99.90;;;;;;5062972;28;20041;-79
2022/05/06 12:07:00;;;;;;;10.07;3.70;;;16.20;99.90;;;;;;5078054;28;20935;-79
2022/05/06 12:09:26;;;;;;;6.32;2.72;;;16.20;99.90;;;;;;5061152;28;20144;-78
2022/05/06 12:12:08;;;;;;;4.15;2.35;;;16.30;99.90;;;;;;5064372;28;20508;-78
2022/05/06 12:14:40;;;;;;;3.63;2.10;;;16.40;99.90;;;;;;5064042;28;20044;-79
2022/05/06 12:17:15;;;;;;;5.18;2.58;;;16.40;99.90;;;;;;5063009;28;20085;-78
2022/05/06 12:19:43;;;;;;;4.20;2.72;;;16.70;99.90;;;;;;5062816;28;20590;-78
2022/05/06 12:22:14;;;;;;;5.13;2.20;;;16.50;99.90;;;;;;5061614;28;20047;-79
2022/05/06 12:24:42;;;;;;;4.57;2.03;;;16.50;99.90;;;;;;5063945;28;20053;-78
2022/05/06 12:27:26;;;;;;;5.28;2.47;;;16.60;99.90;;;;;;5062630;28;20049;-79
2022/05/06 12:29:53;;;;;;;3.30;2.28;;;16.70;99.90;;;;;;5060774;28;20077;-79
2022/05/06 12:32:19;;;;;;;6.10;2.75;;;16.70;99.90;;;;;;5063382;28;20045;-79
2022/05/06 12:34:59;;;;;;;7.38;2.88;;;16.80;99.90;;;;;;5063808;28;20054;-79
2022/05/06 12:37:25;;;;;;;4.25;2.88;;;16.90;99.90;;;;;;5062952;28;20060;-78
2022/05/06 12:39:59;;;;;;;2.80;1.98;;;16.90;99.90;;;;;;5062530;28;20040;-79
2022/05/06 12:42:39;;;;;;;3.38;1.80;;;16.80;99.90;;;;;;5065276;28;20040;-79
2022/05/06 12:45:09;;;;;;;2.70;1.63;;;17.20;99.90;;;;;;5063693;28;20048;-79
2022/05/06 12:50:25;;;;;;;13.30;2.97;;;17.10;99.90;;;;;;5062791;28;20084;-78
2022/05/06 12:52:54;;;;;;;3.78;2.00;;;17.20;99.90;;;;;;5069445;28;20107;-78
2022/05/06 12:55:21;;;;;;;3.80;2.30;;;17.20;99.90;;;;;;5064296;28;20361;-78
2022/05/06 12:57:47;;;;;;;6.22;2.13;;;17.20;99.90;;;;;;5064716;28;20045;-78
2022/05/06 13:00:16;;;;;;;2.38;1.48;;;17.10;99.90;;;;;;5078341;27;20060;-78
2022/05/06 13:02:44;;;;;;;2.72;1.60;;;17.30;99.90;;;;;;5061844;28;20108;-78
2022/05/06 13:05:10;;;;;;;3.22;1.80;;;17.30;99.90;;;;;;5063821;28;20051;-79
2022/05/06 13:07:41;;;;;;;2.92;1.65;;;17.30;99.90;;;;;;5063042;28;20060;-79
2022/05/06 13:10:07;;;;;;;2.57;1.67;;;17.40;99.90;;;;;;5063904;28;20037;-78
2022/05/06 13:12:33;;;;;;;5.20;1.80;;;17.60;99.90;;;;;;5063523;28;20072;-79
2022/05/06 13:15:01;;;;;;;3.22;2.28;;;17.60;99.90;;;;;;5063861;28;20053;-78
2022/05/06 13:17:30;;;;;;;3.05;1.95;;;17.60;99.90;;;;;;5063587;28;20052;-78
2022/05/06 13:20:01;;;;;;;7.05;1.95;;;17.50;99.90;;;;;;5061271;28;20051;-78
2022/05/06 13:22:27;;;;;;;4.22;1.85;;;17.40;99.90;;;;;;5066874;28;20041;-78
2022/05/06 13:24:53;;;;;;;2.65;1.65;;;17.20;99.90;;;;;;5065950;28;20041;-78
2022/05/06 13:27:19;;;;;;;9.90;2.60;;;17.50;99.90;;;;;;5067381;28;20037;-78
2022/05/06 13:29:48;;;;;;;5.03;1.50;;;17.50;99.90;;;;;;5066520;28;20527;-78
2022/05/06 13:32:16;;;;;;;3.05;1.80;;;17.60;99.90;;;;;;5066547;28;20041;-78
2022/05/06 13:34:47;;;;;;;8.80;1.77;;;17.50;99.90;;;;;;5065968;28;20072;-78
2022/05/06 13:37:15;;;;;;;2.00;1.42;;;17.50;99.90;;;;;;5064912;28;20136;-78
2022/05/06 13:39:43;;;;;;;4.75;1.95;;;17.40;99.90;;;;;;5066365;28;20041;-78
2022/05/06 13:42:09;;;;;;;3.15;1.80;;;17.70;99.90;;;;;;5067658;28;20071;-78
2022/05/06 13:44:40;;;;;;;2.85;1.63;;;17.70;99.90;;;;;;5067076;28;20609;-78